Time;durP1;ratioP1;P1;durP2;ratioP2;P2;SDS_P1;SDS_P2;PMS_P1;PMS_P2;Temp;Humidity;BMP_temperature;BMP_pressure;BME280_temperature;BME280_humidity;BME280_pressure;Samples;Min_cycle;Max_cycle;Signal;HPM_P1;HPM_P2
2022/09/02 00:02:16;;;;;;;5.35;1.80;;;;;;;16.31;43.01;100048.34;10344134;28;20046;-58
2022/09/02 00:07:18;;;;;;;4.70;1.85;;;;;;;16.39;43.02;100050.34;10346570;28;20064;-58
2022/09/02 00:12:19;;;;;;;5.60;2.05;;;;;;;16.39;43.12;100047.69;10345121;28;20042;-58
2022/09/02 00:17:21;;;;;;;4.78;1.80;;;;;;;16.24;43.11;100040.06;10339456;28;20176;-58
2022/09/02 00:22:23;;;;;;;6.68;1.88;;;;;;;16.04;43.27;100040.84;10344354;28;20656;-58
2022/09/02 00:27:25;;;;;;;4.30;1.77;;;;;;;15.95;43.94;100041.59;10342867;28;20057;-58
2022/09/02 00:32:27;;;;;;;6.15;1.80;;;;;;;15.91;43.95;100029.63;10346164;28;20050;-58
2022/09/02 00:37:28;;;;;;;4.53;1.73;;;;;;;15.95;43.97;100028.41;10337109;28;20522;-59
2022/09/02 00:42:30;;;;;;;6.10;1.80;;;;;;;16.09;43.76;100025.50;10343876;28;20056;-58
2022/09/02 00:47:32;;;;;;;4.70;1.77;;;;;;;16.16;43.98;100028.50;10342263;28;20516;-58
2022/09/02 00:52:42;;;;;;;5.90;1.80;;;;;;;16.14;44.35;100018.03;10344896;28;20132;-58
2022/09/02 00:57:59;;;;;;;8.20;1.70;;;;;;;16.05;44.66;100025.88;10340347;28;20049;-58
2022/09/02 01:03:08;;;;;;;8.10;1.92;;;;;;;15.91;44.92;100019.06;10340915;28;20042;-58
2022/09/02 01:08:11;;;;;;;8.35;2.10;;;;;;;15.90;45.06;100017.38;10343212;28;20054;-58
2022/09/02 01:13:16;;;;;;;4.32;1.88;;;;;;;16.07;44.51;100030.06;10343074;28;21205;-58
2022/09/02 01:18:24;;;;;;;5.30;1.90;;;;;;;16.10;45.25;100024.53;10342855;28;20045;-58
2022/09/02 01:23:27;;;;;;;3.70;1.88;;;;;;;16.15;45.23;100019.72;10341952;28;20042;-58
2022/09/02 01:28:32;;;;;;;3.30;1.85;;;;;;;16.04;45.60;100024.22;10342128;28;20421;-58
2022/09/02 01:33:34;;;;;;;4.47;2.03;;;;;;;15.80;46.49;100026.16;10340045;28;20410;-58
2022/09/02 01:38:35;;;;;;;8.90;1.83;;;;;;;15.48;46.53;100017.28;10341296;28;20050;-58
2022/09/02 01:43:37;;;;;;;5.75;1.90;;;;;;;15.29;47.09;100008.19;10341642;28;20045;-58
2022/09/02 01:48:39;;;;;;;4.93;2.22;;;;;;;15.37;47.01;100007.56;10340791;28;20050;-58
2022/09/02 01:53:41;;;;;;;4.15;1.75;;;;;;;15.19;47.23;100014.28;10341693;28;20499;-58
2022/09/02 01:58:42;;;;;;;5.03;1.90;;;;;;;15.11;48.05;100014.88;10338384;28;20060;-58
2022/09/02 02:03:44;;;;;;;7.55;2.17;;;;;;;15.06;47.69;100011.75;10346924;28;20346;-59
2022/09/02 02:08:46;;;;;;;3.38;1.70;;;;;;;15.16;47.62;100014.53;10346585;28;20091;-58
2022/09/02 02:13:47;;;;;;;5.80;2.10;;;;;;;15.29;47.54;100016.09;10347406;28;20499;-58
2022/09/02 02:18:49;;;;;;;3.67;1.90;;;;;;;15.29;47.66;100016.09;10350226;28;20045;-58
2022/09/02 02:23:51;;;;;;;3.58;1.80;;;;;;;15.27;47.66;100001.34;10348952;28;20045;-58
2022/09/02 02:28:53;;;;;;;4.20;1.80;;;;;;;15.10;47.71;100010.56;10349455;28;20048;-58
2022/09/02 02:33:54;;;;;;;6.60;1.92;;;;;;;15.02;47.71;100015.56;10346217;28;20143;-58
2022/09/02 02:38:56;;;;;;;6.60;1.98;;;;;;;14.95;48.28;100018.81;10346995;28;20053;-58
2022/09/02 02:43:58;;;;;;;3.95;2.00;;;;;;;14.81;49.10;100011.13;10349718;28;20512;-58
2022/09/02 02:49:01;;;;;;;6.57;1.90;;;;;;;14.74;48.73;100013.38;10347370;28;20483;-58
2022/09/02 02:54:04;;;;;;;6.30;2.05;;;;;;;14.71;49.07;100018.88;10349468;28;20054;-58
2022/09/02 02:59:06;;;;;;;5.32;2.30;;;;;;;14.47;49.91;100005.72;10347178;28;20088;-58
2022/09/02 03:04:08;;;;;;;6.75;2.08;;;;;;;14.09;50.32;100012.97;10344685;28;20050;-58
2022/09/02 03:09:10;;;;;;;4.65;2.00;;;;;;;13.94;50.51;100011.47;10344505;28;20680;-58
2022/09/02 03:14:11;;;;;;;5.15;1.95;;;;;;;14.01;50.13;100010.06;10349665;28;20056;-58
2022/09/02 03:19:13;;;;;;;6.30;1.90;;;;;;;14.12;50.09;100012.75;10348556;28;20068;-58
2022/09/02 03:24:14;;;;;;;6.32;1.90;;;;;;;14.02;50.02;100009.13;10347091;28;20056;-58
2022/09/02 03:29:16;;;;;;;4.18;1.80;;;;;;;13.74;49.98;100007.63;10344790;28;20054;-58
2022/09/02 03:34:18;;;;;;;9.18;2.10;;;;;;;13.47;49.30;100001.72;10346668;28;20053;-58
2022/09/02 03:39:20;;;;;;;3.63;1.90;;;;;;;13.40;49.54;100004.81;10347024;28;20049;-58
2022/09/02 03:44:21;;;;;;;7.53;1.88;;;;;;;13.42;49.28;99995.94;10346456;28;20046;-58
2022/09/02 03:49:23;;;;;;;3.72;1.83;;;;;;;13.49;49.12;100004.22;10344700;28;20054;-58
2022/09/02 03:54:25;;;;;;;5.07;1.80;;;;;;;13.37;49.15;99998.00;10346638;28;20053;-58
2022/09/02 03:59:26;;;;;;;3.05;1.80;;;;;;;13.47;49.29;100000.88;10344048;28;20052;-58
2022/09/02 04:04:29;;;;;;;4.78;2.03;;;;;;;13.60;49.45;99996.41;10345693;28;20057;-58
2022/09/02 04:09:31;;;;;;;3.50;1.80;;;;;;;13.72;49.48;99991.13;10345874;28;20049;-59
2022/09/02 04:14:32;;;;;;;6.70;2.00;;;;;;;13.85;49.17;99993.72;10347245;28;20050;-58
2022/09/02 04:19:36;;;;;;;6.55;2.13;;;;;;;13.89;50.50;99992.53;10345691;28;20132;-58
2022/09/02 04:24:38;;;;;;;9.25;2.45;;;;;;;13.89;51.77;99994.31;10342965;28;20521;-58
2022/09/02 04:29:39;;;;;;;5.45;1.90;;;;;;;13.89;51.28;99997.78;10344538;28;20049;-58
2022/09/02 04:34:41;;;;;;;4.38;1.83;;;;;;;13.91;51.12;99995.03;10338814;28;20075;-58
2022/09/02 04:39:43;;;;;;;3.63;1.83;;;;;;;13.94;51.21;100005.34;10340058;28;20070;-59
2022/09/02 04:44:45;;;;;;;5.03;2.00;;;;;;;13.82;51.38;99993.09;10346395;28;20053;-58
2022/09/02 04:49:49;;;;;;;4.00;2.08;;;;;;;13.80;51.49;99995.00;10344856;28;20540;-58
2022/09/02 04:54:50;;;;;;;6.10;2.17;;;;;;;13.82;51.61;99998.34;10345721;28;20054;-59
2022/09/02 04:59:52;;;;;;;6.35;2.20;;;;;;;13.40;52.31;99994.31;10342486;28;20421;-58
2022/09/02 05:04:54;;;;;;;5.30;1.88;;;;;;;13.21;52.59;100001.81;10343378;28;20054;-58
2022/09/02 05:09:57;;;;;;;3.80;1.98;;;;;;;13.24;52.70;100002.44;10341745;28;20053;-58
2022/09/02 05:15:00;;;;;;;4.55;1.90;;;;;;;13.37;52.62;100002.44;10341532;28;20044;-59
2022/09/02 05:20:04;;;;;;;5.90;1.95;;;;;;;13.70;52.25;100003.53;10343600;28;20046;-58
2022/09/02 05:25:08;;;;;;;5.72;2.03;;;;;;;13.77;52.13;100003.94;10337846;28;20057;-58
2022/09/02 05:30:10;;;;;;;4.63;1.92;;;;;;;13.74;52.41;100005.00;10344310;28;20068;-58
2022/09/02 05:35:12;;;;;;;6.75;1.90;;;;;;;13.91;52.06;100006.41;10344811;28;20046;-58
2022/09/02 05:40:13;;;;;;;6.47;2.10;;;;;;;14.17;51.90;100007.13;10343242;28;20494;-58
2022/09/02 05:45:15;;;;;;;4.22;2.00;;;;;;;14.42;51.09;99999.97;10344775;28;20046;-58
2022/09/02 05:50:17;;;;;;;3.42;1.80;;;;;;;14.62;50.87;100000.28;10343653;28;20056;-58
2022/09/02 05:55:20;;;;;;;3.47;1.98;;;;;;;14.69;50.60;100001.50;10340954;28;20690;-58
2022/09/02 06:00:22;;;;;;;6.05;1.90;;;;;;;14.99;49.86;99993.91;10344404;28;20490;-58
2022/09/02 06:05:23;;;;;;;3.85;1.70;;;;;;;15.23;49.42;99995.50;10340131;28;20056;-58
2022/09/02 06:10:25;;;;;;;4.82;1.92;;;;;;;15.45;49.01;99994.63;10337166;28;20054;-59
2022/09/02 06:15:29;;;;;;;5.30;2.10;;;;;;;15.37;48.98;99986.50;10335893;28;20050;-58
2022/09/02 06:20:31;;;;;;;6.68;1.90;;;;;;;15.45;48.61;99984.09;10339310;28;20222;-58
2022/09/02 06:25:42;;;;;;;6.00;1.95;;;;;;;15.61;49.37;99987.25;10335274;28;20240;-58
2022/09/02 06:30:47;;;;;;;3.60;1.90;;;;;;;15.86;48.78;99992.22;10329846;28;20052;-58
2022/09/02 06:35:48;;;;;;;5.47;1.70;;;;;;;16.16;47.91;99991.56;10335012;28;20042;-58
2022/09/02 06:40:53;;;;;;;4.57;1.75;;;;;;;16.59;47.34;99994.16;10336995;28;20056;-58
2022/09/02 06:45:55;;;;;;;6.75;2.00;;;;;;;16.79;47.14;99993.31;10337514;28;20213;-58
2022/09/02 06:50:57;;;;;;;5.00;2.10;;;;;;;16.93;46.88;99988.53;10343813;28;20200;-58
2022/09/02 06:55:58;;;;;;;5.00;1.80;;;;;;;17.03;46.54;99988.59;10345411;28;20050;-59
2022/09/02 07:01:00;;;;;;;4.32;1.80;;;;;;;17.31;45.43;99987.88;10348461;28;20046;-59
2022/09/02 07:06:10;;;;;;;3.97;2.00;;;;;;;17.40;44.79;99983.63;10347343;28;20046;-58
2022/09/02 07:11:21;;;;;;;3.83;1.85;;;;;;;17.46;43.84;99975.16;10339492;28;20620;-58
2022/09/02 07:16:23;;;;;;;5.20;1.95;;;;;;;17.70;43.91;99968.56;10344015;28;20064;-58
2022/09/02 07:21:28;;;;;;;10.30;2.17;;;;;;;17.95;42.62;99964.56;10336344;28;20045;-58
2022/09/02 07:26:30;;;;;;;4.53;2.00;;;;;;;18.25;41.79;99963.63;10343083;28;20413;-58
2022/09/02 07:31:31;;;;;;;7.13;2.05;;;;;;;18.35;42.23;99969.75;10340821;28;20053;-58
2022/09/02 07:36:36;;;;;;;11.30;2.42;;;;;;;18.34;41.72;99968.09;10344371;28;20498;-58
2022/09/02 07:41:40;;;;;;;5.90;2.13;;;;;;;18.61;40.90;99973.50;10345763;28;20630;-59
2022/09/02 07:46:42;;;;;;;7.25;2.00;;;;;;;19.33;39.51;99964.00;10349124;28;20052;-59
2022/09/02 07:51:48;;;;;;;4.78;1.90;;;;;;;19.77;38.83;99957.03;10345985;28;20548;-58
2022/09/02 07:56:50;;;;;;;6.72;2.03;;;;;;;20.23;38.05;99954.22;10347378;28;20089;-58
2022/09/02 08:01:52;;;;;;;7.68;2.13;;;;;;;20.39;37.54;99958.00;10347302;28;20049;-58
2022/09/02 08:06:54;;;;;;;7.22;2.00;;;;;;;20.90;36.50;99948.28;10346938;28;20057;-59
2022/09/02 08:11:56;;;;;;;8.40;2.10;;;;;;;21.25;35.81;99946.47;10346586;28;20065;-59
2022/09/02 08:16:58;;;;;;;9.35;2.03;;;;;;;21.50;35.55;99933.13;10347765;28;20136;-59
2022/09/02 08:22:07;;;;;;;4.65;2.00;;;;;;;21.87;34.36;99938.06;10347025;28;21233;-59
2022/09/02 08:27:09;;;;;;;5.57;1.80;;;;;;;21.89;34.18;99941.41;10346782;28;20058;-59
2022/09/02 08:32:10;;;;;;;5.18;1.70;;;;;;;22.09;33.97;99934.78;10346095;28;20139;-59
2022/09/02 08:37:12;;;;;;;5.68;1.70;;;;;;;22.62;33.24;99928.97;10346092;28;20054;-59
2022/09/02 08:42:37;;;;;;;7.63;1.90;;;;;;;22.63;32.45;99922.66;10345526;28;20062;-59
2022/09/02 08:47:42;;;;;;;2.70;1.40;;;;;;;22.97;32.14;99911.75;10345316;28;20502;-59
2022/09/02 08:52:58;;;;;;;6.35;1.85;;;;;;;23.13;31.72;99917.03;10339896;28;20052;-59
2022/09/02 08:58:01;;;;;;;7.43;1.73;;;;;;;23.39;31.55;99912.28;10342616;28;20449;-59
2022/09/02 09:03:23;;;;;;;6.53;1.63;;;;;;;23.69;31.47;99907.97;10342705;28;20554;-59
2022/09/02 09:08:37;;;;;;;5.70;1.63;;;;;;;23.39;30.79;99901.63;10343126;28;20144;-59
2022/09/02 09:14:03;;;;;;;4.32;1.63;;;;;;;23.86;30.51;99893.53;10336968;28;20052;-59
2022/09/02 09:19:20;;;;;;;3.25;1.73;;;;;;;24.29;30.19;99884.84;10341681;28;20604;-59
2022/09/02 09:24:39;;;;;;;6.30;1.50;;;;;;;24.45;28.13;99873.19;10342058;28;20050;-59
2022/09/02 09:29:41;;;;;;;2.58;1.40;;;;;;;24.79;29.00;99877.03;10345085;28;20511;-59
2022/09/02 09:35:06;;;;;;;2.85;1.35;;;;;;;25.04;26.61;99854.31;10342788;28;20058;-59
2022/09/02 09:40:16;;;;;;;2.95;1.40;;;;;;;25.20;25.93;99853.31;10342735;28;20120;-59
2022/09/02 09:45:26;;;;;;;2.80;1.40;;;;;;;25.30;26.71;99855.69;10344022;28;20052;-59
2022/09/02 09:50:27;;;;;;;;;;;;;;;25.00;25.58;99849.53;10344515;28;20065;-59
2022/09/02 09:55:29;;;;;;;5.07;1.50;;;;;;;25.47;25.42;99839.22;10344774;28;20380;-59
2022/09/02 10:00:32;;;;;;;5.15;1.45;;;;;;;25.48;24.39;99851.59;10341004;28;20052;-59
2022/09/02 10:05:39;;;;;;;2.22;1.42;;;;;;;25.63;23.01;99843.53;10339469;28;20048;-60
2022/09/02 10:10:56;;;;;;;4.05;1.50;;;;;;;25.53;23.18;99841.13;10339687;28;20122;-59
2022/09/02 10:16:10;;;;;;;4.57;1.30;;;;;;;25.39;23.22;99835.81;10344165;28;20050;-59
2022/09/02 10:21:34;;;;;;;2.78;1.40;;;;;;;25.10;23.36;99824.13;10352090;28;20053;-59
2022/09/02 10:26:47;;;;;;;6.88;1.58;;;;;;;25.47;23.12;99823.16;10352116;28;20049;-59
2022/09/02 10:32:14;;;;;;;3.92;1.38;;;;;;;25.43;21.88;99824.56;10353072;28;20064;-59
2022/09/02 10:37:23;;;;;;;3.05;1.40;;;;;;;25.48;21.74;99803.41;10353041;28;20077;-59
2022/09/02 10:42:52;;;;;;;6.47;1.77;;;;;;;25.42;21.90;99806.00;10351498;28;20049;-59
2022/09/02 10:48:03;;;;;;;3.70;1.40;;;;;;;25.37;21.95;99803.88;10346991;28;20050;-59
2022/09/02 10:53:23;;;;;;;3.78;1.50;;;;;;;25.25;22.62;99813.41;10348228;28;20157;-59
2022/09/02 10:58:56;;;;;;;3.15;1.40;;;;;;;25.21;22.77;99793.38;10350311;28;20064;-59
2022/09/02 11:04:07;;;;;;;4.95;1.20;;;;;;;25.63;22.88;99785.41;10337087;28;20085;-59
2022/09/02 11:09:39;;;;;;;5.43;1.50;;;;;;;25.47;22.60;99780.31;10351177;28;20054;-59
2022/09/02 11:14:49;;;;;;;4.47;1.55;;;;;;;25.70;22.74;99774.75;10350200;28;20141;-60
2022/09/02 11:19:54;;;;;;;4.07;1.50;;;;;;;25.88;22.56;99770.59;10350451;28;20046;-59
2022/09/02 11:24:55;;;;;;;5.35;1.60;;;;;;;25.78;22.20;99770.09;10349959;28;20096;-59
2022/09/02 11:30:05;;;;;;;5.03;1.30;;;;;;;26.03;21.49;99759.84;10345616;28;20053;-59
2022/09/02 11:35:13;;;;;;;2.28;1.20;;;;;;;26.21;21.97;99748.59;10348373;28;20717;-59
2022/09/02 11:40:22;;;;;;;3.65;1.52;;;;;;;26.08;21.61;99748.53;10346274;28;20048;-59
2022/09/02 11:45:55;;;;;;;4.78;1.40;;;;;;;25.86;22.02;99745.00;10347344;28;20046;-59
2022/09/02 11:51:20;;;;;;;4.55;1.58;;;;;;;25.10;22.74;99740.38;10346544;28;20143;-59
2022/09/02 11:56:29;;;;;;;3.65;1.60;;;;;;;24.84;23.15;99740.03;10354894;28;20054;-59
2022/09/02 12:01:47;;;;;;;4.45;1.40;;;;;;;24.69;23.31;99736.53;10347813;28;20144;-59
2022/09/02 12:07:05;;;;;;;2.85;1.38;;;;;;;24.74;23.18;99731.47;10347887;28;20557;-59
2022/09/02 12:12:50;;;;;;;3.13;1.48;;;;;;;25.07;23.17;99727.34;10359288;28;20077;-59
2022/09/02 12:17:52;;;;;;;2.35;1.30;;;;;;;24.91;23.09;99732.94;10341825;28;20077;-59
2022/09/02 12:22:56;;;;;;;3.47;1.30;;;;;;;24.99;22.83;99728.31;10345105;28;20076;-59
2022/09/02 12:28:20;;;;;;;4.88;1.40;;;;;;;25.44;21.89;99713.75;10346960;28;20068;-59
2022/09/02 12:33:50;;;;;;;3.83;1.63;;;;;;;25.85;21.75;99704.00;10344557;28;20060;-59
2022/09/02 12:38:52;;;;;;;3.03;1.55;;;;;;;25.55;22.04;99710.56;10345272;28;20452;-59
2022/09/02 12:44:02;;;;;;;6.40;1.30;;;;;;;24.98;22.39;99707.06;10343775;28;20137;-59
2022/09/02 12:49:24;;;;;;;3.45;1.30;;;;;;;24.88;22.74;99710.06;10343725;28;20053;-59
2022/09/02 12:54:43;;;;;;;7.15;1.50;;;;;;;25.14;22.29;99695.31;10344484;28;20080;-59
2022/09/02 12:59:47;;;;;;;5.30;1.30;;;;;;;25.45;22.16;99685.13;10344866;28;20058;-59
2022/09/02 13:05:14;;;;;;;1.90;1.30;;;;;;;25.63;22.46;99678.28;10343784;28;20140;-59
2022/09/02 13:11:00;;;;;;;3.88;1.40;;;;;;;25.20;22.23;99687.34;10344313;28;20144;-59
2022/09/02 13:16:37;;;;;;;2.65;1.27;;;;;;;25.06;22.72;99672.19;10351880;28;20449;-59
2022/09/02 13:22:03;;;;;;;3.88;1.20;;;;;;;25.02;22.34;99677.06;10365859;28;20046;-59
2022/09/02 13:27:31;;;;;;;5.13;1.30;;;;;;;25.25;21.94;99657.31;10343844;28;20459;-59
2022/09/02 13:32:34;;;;;;;2.50;1.30;;;;;;;25.47;22.04;99649.09;10343385;28;20297;-59
2022/09/02 13:37:40;;;;;;;4.97;1.40;;;;;;;25.67;21.83;99647.41;10344170;28;20049;-59
2022/09/02 13:42:52;;;;;;;3.72;1.20;;;;;;;25.50;22.35;99629.97;10343853;28;20053;-59
2022/09/02 13:47:57;;;;;;;2.53;1.30;;;;;;;25.44;21.92;99638.78;10340558;28;20041;-59
2022/09/02 13:53:02;;;;;;;5.38;1.45;;;;;;;25.53;21.83;99634.94;10343108;28;20156;-59
2022/09/02 13:58:29;;;;;;;2.30;1.40;;;;;;;25.55;21.77;99632.09;10342820;28;20062;-59
2022/09/02 14:03:31;;;;;;;3.03;1.42;;;;;;;25.35;22.16;99615.84;10342791;28;20046;-59
2022/09/02 14:08:34;;;;;;;5.18;1.40;;;;;;;25.39;22.39;99616.28;10343307;28;20080;-59
2022/09/02 14:13:36;;;;;;;5.03;1.50;;;;;;;25.52;22.25;99606.50;10341752;28;20065;-59
2022/09/02 14:18:37;;;;;;;3.33;1.40;;;;;;;25.45;22.30;99597.59;10341636;28;20521;-59
2022/09/02 14:23:48;;;;;;;2.03;1.30;;;;;;;25.69;21.68;99583.75;10343623;28;20046;-59
2022/09/02 14:28:51;;;;;;;4.88;1.60;;;;;;;25.64;22.20;99583.53;10342178;28;20504;-60
2022/09/02 14:33:52;;;;;;;5.38;1.40;;;;;;;25.59;22.14;99588.63;10342918;28;20531;-59
2022/09/02 14:38:56;;;;;;;5.10;1.30;;;;;;;25.39;22.07;99576.13;10341948;28;20044;-59
2022/09/02 14:44:23;;;;;;;6.03;1.50;;;;;;;25.27;22.06;99567.78;10340995;28;20050;-59
2022/09/02 14:49:49;;;;;;;5.38;1.30;;;;;;;25.27;22.35;99569.63;10341198;28;20087;-59
2022/09/02 14:54:53;;;;;;;5.85;1.60;;;;;;;25.37;22.40;99556.75;10340385;28;20498;-59
2022/09/02 15:00:10;;;;;;;4.18;1.55;;;;;;;25.40;22.38;99549.19;10341948;28;20554;-59
2022/09/02 15:05:13;;;;;;;5.15;1.40;;;;;;;25.53;21.70;99559.94;10344855;28;20057;-59
2022/09/02 15:10:15;;;;;;;7.85;1.30;;;;;;;25.57;21.92;99550.50;10350615;28;20096;-59
2022/09/02 15:15:17;;;;;;;4.25;1.40;;;;;;;25.40;22.42;99545.66;10345772;28;20054;-59
2022/09/02 15:20:20;;;;;;;3.42;1.52;;;;;;;25.42;22.08;99557.00;10348732;28;20056;-59
2022/09/02 15:25:22;;;;;;;2.65;1.20;;;;;;;25.28;22.13;99540.00;10351575;28;20133;-59
2022/09/02 15:30:24;;;;;;;5.97;1.52;;;;;;;25.30;22.28;99537.13;10349843;28;21274;-59
2022/09/02 15:35:25;;;;;;;4.95;1.55;;;;;;;25.41;21.98;99531.22;10350160;28;20963;-59
2022/09/02 15:40:28;;;;;;;4.47;1.40;;;;;;;25.32;22.20;99543.09;10346207;28;20057;-60
2022/09/02 15:45:30;;;;;;;4.03;1.35;;;;;;;25.31;22.41;99544.09;10345063;28;20060;-59
2022/09/02 15:50:32;;;;;;;4.72;1.52;;;;;;;25.38;21.98;99529.81;10347294;28;20983;-59
2022/09/02 15:55:34;;;;;;;6.35;1.40;;;;;;;25.44;21.83;99537.03;10344654;28;20053;-59
2022/09/02 16:00:36;;;;;;;5.43;1.55;;;;;;;25.32;21.97;99530.56;10348417;28;20413;-59
2022/09/02 16:05:38;;;;;;;3.47;1.40;;;;;;;25.37;21.67;99528.13;10346179;28;20046;-59
2022/09/02 16:10:39;;;;;;;4.43;1.20;;;;;;;25.20;22.20;99524.09;10347606;28;20061;-59
2022/09/02 16:15:42;;;;;;;6.70;1.40;;;;;;;25.04;22.36;99516.31;10346871;28;20046;-59
2022/09/02 16:20:43;;;;;;;4.18;1.30;;;;;;;24.96;22.46;99508.44;10345730;28;20045;-59
2022/09/02 16:25:45;;;;;;;2.78;1.33;;;;;;;24.91;22.52;99506.38;10346521;28;20052;-59
2022/09/02 16:30:50;;;;;;;2.33;1.30;;;;;;;24.96;22.59;99503.94;10347801;28;20060;-59
2022/09/02 16:35:51;;;;;;;4.97;1.40;;;;;;;25.02;22.61;99502.31;10339644;28;20419;-59
2022/09/02 16:40:56;;;;;;;5.60;1.40;;;;;;;25.37;21.99;99497.84;10344935;28;20128;-59
2022/09/02 16:46:01;;;;;;;3.80;1.20;;;;;;;25.65;21.68;99504.81;10343890;28;20620;-59
2022/09/02 16:51:05;;;;;;;5.90;1.50;;;;;;;25.68;21.93;99501.75;10345993;28;20120;-59
2022/09/02 16:56:11;;;;;;;4.47;1.48;;;;;;;25.46;21.39;99502.88;10343892;28;20054;-59
2022/09/02 17:01:14;;;;;;;4.22;1.13;;;;;;;25.23;21.73;99496.91;10341545;28;20054;-59
2022/09/02 17:06:17;;;;;;;3.05;1.15;;;;;;;24.79;22.10;99496.38;10340301;28;20046;-59
2022/09/02 17:11:24;;;;;;;3.70;1.20;;;;;;;24.56;22.54;99501.06;10341441;28;20076;-59
2022/09/02 17:16:28;;;;;;;2.63;1.27;;;;;;;24.36;22.71;99502.72;10341053;28;20057;-59
2022/09/02 17:21:56;;;;;;;3.88;1.30;;;;;;;24.13;22.79;99508.22;10339557;28;20501;-59
2022/09/02 17:26:59;;;;;;;3.83;1.30;;;;;;;24.00;23.14;99503.53;10341549;28;20692;-59
2022/09/02 17:32:02;;;;;;;5.30;1.25;;;;;;;23.82;23.54;99500.44;10339571;28;20142;-59
2022/09/02 17:37:04;;;;;;;2.78;1.25;;;;;;;23.67;23.78;99515.66;10341746;28;20058;-59
2022/09/02 17:42:06;;;;;;;3.95;1.30;;;;;;;23.46;24.09;99510.22;10342732;28;20426;-59
2022/09/02 17:47:17;;;;;;;3.42;1.27;;;;;;;23.35;24.33;99516.00;10343085;28;20065;-59
2022/09/02 17:52:21;;;;;;;3.97;1.30;;;;;;;23.17;24.70;99513.66;10341897;28;20062;-59
2022/09/02 17:57:41;;;;;;;2.70;1.30;;;;;;;22.91;25.40;99513.25;10343253;28;20057;-59
2022/09/02 18:02:43;;;;;;;3.72;1.40;;;;;;;22.64;25.56;99517.28;10339632;28;20048;-59
2022/09/02 18:08:01;;;;;;;3.35;1.35;;;;;;;22.45;26.40;99517.72;10339857;28;20046;-59
2022/09/02 18:13:13;;;;;;;5.35;1.35;;;;;;;22.28;26.81;99515.38;10344057;28;20068;-59
2022/09/02 18:18:16;;;;;;;3.40;1.40;;;;;;;22.02;27.49;99517.47;10341908;28;20064;-59
2022/09/02 18:23:40;;;;;;;3.78;1.70;;;;;;;21.67;27.45;99524.13;10339908;28;20057;-59
2022/09/02 18:28:55;;;;;;;7.78;1.50;;;;;;;21.43;27.83;99526.88;10343098;28;20872;-59
2022/09/02 18:34:12;;;;;;;7.90;1.50;;;;;;;21.21;27.84;99523.06;10343276;28;20050;-59
2022/09/02 18:39:32;;;;;;;9.80;1.60;;;;;;;21.06;28.04;99530.06;10348250;28;20112;-59
2022/09/02 18:44:51;;;;;;;4.75;1.42;;;;;;;20.82;28.70;99533.59;10350387;28;20046;-59
2022/09/02 18:49:56;;;;;;;8.32;1.50;;;;;;;20.76;29.19;99536.91;10351563;28;20064;-58
2022/09/02 18:55:02;;;;;;;11.50;1.60;;;;;;;20.60;29.32;99546.69;10350022;28;20084;-58
2022/09/02 19:00:09;;;;;;;6.45;1.40;;;;;;;20.34;29.64;99543.31;10350468;28;20046;-58
2022/09/02 19:05:23;;;;;;;8.30;1.50;;;;;;;20.22;30.02;99550.72;10349793;28;20050;-58
2022/09/02 19:10:25;;;;;;;5.97;1.60;;;;;;;20.05;30.11;99557.00;10346911;28;20564;-58
2022/09/02 19:15:26;;;;;;;6.30;1.60;;;;;;;19.73;29.77;99557.63;10349223;28;20314;-59
2022/09/02 19:20:28;;;;;;;4.55;1.90;;;;;;;19.43;30.32;99560.78;10347372;28;20049;-58
2022/09/02 19:25:32;;;;;;;6.80;1.40;;;;;;;19.26;30.62;99559.84;10349067;28;20046;-58
2022/09/02 19:30:35;;;;;;;7.50;1.35;;;;;;;19.06;30.56;99565.50;10348645;28;20140;-58
2022/09/02 19:35:43;;;;;;;3.88;1.42;;;;;;;18.82;31.56;99573.22;10343575;28;20437;-58
2022/09/02 19:40:48;;;;;;;5.55;1.30;;;;;;;18.69;32.02;99572.81;10349067;28;20060;-58
2022/09/02 19:45:50;;;;;;;18.45;7.05;;;;;;;18.73;31.71;99563.56;10349055;28;20053;-58
2022/09/02 19:50:52;;;;;;;11.07;3.25;;;;;;;18.77;32.30;99571.03;10346027;28;20064;-58
2022/09/02 19:55:54;;;;;;;6.95;1.92;;;;;;;18.76;32.57;99569.38;10348294;28;20061;-58
2022/09/02 20:00:55;;;;;;;10.73;1.80;;;;;;;18.62;32.12;99570.75;10345582;28;20050;-58
2022/09/02 20:05:57;;;;;;;4.05;1.55;;;;;;;18.51;33.13;99565.66;10348606;28;20097;-58
2022/09/02 20:11:02;;;;;;;2.65;1.40;;;;;;;18.13;33.32;99567.69;10347562;28;20561;-58
2022/09/02 20:16:04;;;;;;;4.35;1.50;;;;;;;17.89;33.71;99573.56;10344123;28;20054;-58
2022/09/02 20:21:06;;;;;;;4.82;1.70;;;;;;;17.79;34.33;99570.94;10347900;28;20418;-58
2022/09/02 20:26:19;;;;;;;5.82;1.90;;;;;;;17.74;34.92;99575.84;10346887;28;20503;-58
2022/09/02 20:31:27;;;;;;;2.78;1.70;;;;;;;17.68;35.07;99576.41;10348077;28;20551;-58
2022/09/02 20:36:46;;;;;;;6.47;1.67;;;;;;;17.77;35.04;99578.19;10340775;28;20062;-58
2022/09/02 20:42:01;;;;;;;6.45;1.67;;;;;;;17.52;34.85;99570.06;10343202;28;20140;-58
2022/09/02 20:47:50;;;;;;;5.13;1.60;;;;;;;17.42;35.70;99571.91;10342691;28;20583;-58
2022/09/02 20:53:30;;;;;;;8.10;1.70;;;;;;;17.47;35.60;99577.59;10342862;28;20046;-58
2022/09/02 20:58:41;;;;;;;4.32;1.70;;;;;;;17.36;36.59;99583.91;10343553;28;20419;-58
2022/09/02 21:03:42;;;;;;;3.13;1.52;;;;;;;17.27;36.41;99576.78;10344502;28;20086;-58
2022/09/02 21:09:12;;;;;;;4.97;1.70;;;;;;;16.85;37.22;99580.75;10344031;28;20057;-58
2022/09/02 21:14:22;;;;;;;4.63;1.90;;;;;;;16.92;37.01;99587.13;10343946;28;20433;-58
2022/09/02 21:19:38;;;;;;;7.78;1.70;;;;;;;16.98;37.71;99586.56;10344407;28;20140;-58
2022/09/02 21:25:00;;;;;;;4.70;1.70;;;;;;;17.00;37.11;99582.81;10343041;28;20511;-58
2022/09/02 21:30:06;;;;;;;3.78;1.52;;;;;;;16.77;37.79;99581.41;10343748;28;20702;-58
2022/09/02 21:35:09;;;;;;;4.00;1.65;;;;;;;16.66;38.00;99586.00;10343564;28;20140;-58
2022/09/02 21:40:16;;;;;;;3.67;1.60;;;;;;;16.67;38.69;99590.31;10343615;28;20074;-58
2022/09/02 21:45:43;;;;;;;6.68;1.80;;;;;;;16.58;38.65;99585.88;10342097;28;20061;-58
2022/09/02 21:51:00;;;;;;;4.65;1.80;;;;;;;16.30;38.57;99586.63;10342374;28;20153;-58
2022/09/02 21:56:14;;;;;;;3.03;1.88;;;;;;;16.15;38.81;99589.66;10343483;28;20096;-58
2022/09/02 22:01:26;;;;;;;3.20;1.80;;;;;;;15.80;39.49;99591.88;10344077;28;20050;-58
2022/09/02 22:06:45;;;;;;;5.13;1.70;;;;;;;15.74;40.08;99597.69;10343450;28;20104;-58
2022/09/02 22:11:57;;;;;;;3.70;1.90;;;;;;;15.75;40.47;99591.47;10343622;28;20050;-57
2022/09/02 22:17:34;;;;;;;5.10;1.70;;;;;;;15.88;39.91;99584.16;10351521;28;20585;-58
2022/09/02 22:22:40;;;;;;;9.10;2.00;;;;;;;15.82;39.77;99576.78;10349666;28;20156;-57
2022/09/02 22:27:48;;;;;;;6.18;1.77;;;;;;;15.82;40.04;99583.84;10351679;28;20417;-58
2022/09/02 22:33:05;;;;;;;4.28;2.00;;;;;;;15.91;40.08;99577.78;10349196;28;20050;-58
2022/09/02 22:38:12;;;;;;;5.43;2.00;;;;;;;15.81;40.06;99580.38;10349518;28;20054;-57
2022/09/02 22:43:20;;;;;;;4.32;1.80;;;;;;;15.85;40.11;99581.78;10350333;28;20061;-58
2022/09/02 22:53:53;;;;;;;3.50;1.77;;;;;;;15.69;40.15;99570.06;10349770;28;20052;-58
2022/09/02 22:59:35;;;;;;;8.43;2.10;;;;;;;15.65;40.76;99561.59;10349620;28;20093;-58
2022/09/02 23:05:40;;;;;;;5.97;1.80;;;;;;;15.71;40.35;99557.59;10351390;28;20072;-58
2022/09/02 23:11:05;;;;;;;5.35;1.98;;;;;;;15.59;40.58;99559.44;10348980;28;20053;-58
2022/09/02 23:16:13;;;;;;;4.55;1.80;;;;;;;15.69;40.58;99565.63;10349055;28;20065;-58
2022/09/02 23:21:35;;;;;;;4.95;1.95;;;;;;;15.69;40.24;99562.16;10349180;28;20522;-58
2022/09/02 23:27:03;;;;;;;4.50;2.00;;;;;;;15.60;40.25;99570.84;10345460;28;20648;-58
2022/09/02 23:32:19;;;;;;;4.88;1.83;;;;;;;15.47;40.69;99567.56;10348445;28;20057;-58
2022/09/02 23:37:29;;;;;;;4.47;1.80;;;;;;;15.52;40.76;99557.50;10349428;28;20089;-57
2022/09/02 23:42:31;;;;;;;4.50;1.73;;;;;;;15.45;40.76;99558.97;10346466;28;20575;-58
2022/09/02 23:48:26;;;;;;;4.20;1.65;;;;;;;15.34;41.40;99559.88;10348246;28;20080;-57
2022/09/02 23:53:40;;;;;;;4.35;1.75;;;;;;;15.17;42.54;99557.81;10368236;28;20080;-57
2022/09/02 23:59:19;;;;;;;4.10;1.70;;;;;;;14.93;43.16;99562.53;10346676;28;20203;-58
